Time;durP1;ratioP1;P1;durP2;ratioP2;P2;SDS_P1;SDS_P2;PMS_P1;PMS_P2;Temp;Humidity;BMP_temperature;BMP_pressure;BME280_temperature;BME280_humidity;BME280_pressure;Samples;Min_cycle;Max_cycle;Signal;HPM_P1;HPM_P2
2022/03/06 00:00:13;;;;;;;1.15;1.15;;;;;;;3.71;48.34;102056.84;672201;29;22407;-69
2022/03/06 00:00:34;;;;;;;1.10;1.10;;;;;;;3.71;48.31;102056.00;670972;29;70199;-69
2022/03/06 00:00:55;;;;;;;1.10;1.10;;;;;;;3.70;48.35;102054.28;674606;29;22405;-68
2022/03/06 00:01:17;;;;;;;1.05;1.05;;;;;;;3.73;48.31;102056.75;674793;29;21597;-70
2022/03/06 00:01:39;;;;;;;0.80;0.80;;;;;;;3.72;48.23;102061.25;669941;29;66017;-69
2022/03/06 00:02:01;;;;;;;1.10;1.10;;;;;;;3.71;48.12;102053.34;671385;29;46423;-69
2022/03/06 00:02:22;;;;;;;1.20;1.20;;;;;;;3.68;47.84;102053.53;671365;29;46391;-70
2022/03/06 00:02:44;;;;;;;1.20;1.20;;;;;;;3.67;47.84;102052.69;671624;29;46334;-69
2022/03/06 00:03:05;;;;;;;1.10;1.10;;;;;;;3.66;47.86;102056.31;672319;29;22547;-69
2022/03/06 00:03:26;;;;;;;0.90;0.90;;;;;;;3.65;47.89;102053.72;669573;29;22308;-70
2022/03/06 00:03:48;;;;;;;0.90;0.90;;;;;;;3.63;47.89;102048.50;671598;29;45248;-69
2022/03/06 00:04:10;;;;;;;1.10;1.10;;;;;;;3.60;47.96;102054.91;672091;29;22342;-69
2022/03/06 00:04:32;;;;;;;1.10;1.10;;;;;;;3.57;47.89;102051.56;670949;29;46730;-70
2022/03/06 00:04:54;;;;;;;1.00;1.00;;;;;;;3.52;48.03;102054.53;671298;29;45301;-69
2022/03/06 00:05:15;;;;;;;1.10;1.10;;;;;;;3.53;48.16;102058.06;671296;29;45421;-70
2022/03/06 00:05:37;;;;;;;0.95;0.95;;;;;;;3.51;48.23;102058.16;675216;29;23355;-69
2022/03/06 00:05:58;;;;;;;1.08;1.08;;;;;;;3.50;48.40;102059.13;673844;29;46251;-70
2022/03/06 00:06:19;;;;;;;1.40;1.40;;;;;;;3.51;48.42;102057.28;673915;29;21598;-69
2022/03/06 00:06:40;;;;;;;1.20;1.20;;;;;;;3.52;48.54;102056.34;674699;29;22416;-70
2022/03/06 00:07:02;;;;;;;1.20;1.20;;;;;;;3.52;48.66;102053.66;675112;29;23466;-69
2022/03/06 00:07:23;;;;;;;0.90;0.90;;;;;;;3.53;48.58;102061.59;674343;29;46713;-69
2022/03/06 00:07:44;;;;;;;0.90;0.90;;;;;;;3.54;48.60;102060.66;675110;29;22375;-69
2022/03/06 00:08:06;;;;;;;0.95;0.95;;;;;;;3.51;48.65;102054.63;675058;29;22247;-69
2022/03/06 00:08:28;;;;;;;1.10;1.10;;;;;;;3.55;48.63;102050.81;673990;29;45263;-69
2022/03/06 00:08:50;;;;;;;1.08;1.08;;;;;;;3.51;48.46;102059.97;673930;29;45154;-69
2022/03/06 00:09:12;;;;;;;1.00;1.00;;;;;;;3.54;48.48;102057.09;674134;29;45060;-69
2022/03/06 00:09:34;;;;;;;1.20;1.20;;;;;;;3.52;48.62;102049.19;672455;29;67243;-69
2022/03/06 00:09:55;;;;;;;1.20;1.20;;;;;;;3.52;48.50;102059.03;674616;29;23448;-69
2022/03/06 00:10:17;;;;;;;0.80;0.80;;;;;;;3.51;48.49;102055.50;674559;29;23443;-69
2022/03/06 00:10:38;;;;;;;0.82;0.82;;;;;;;3.48;48.50;102053.03;673886;29;46390;-69
2022/03/06 00:10:59;;;;;;;0.95;0.95;;;;;;;3.48;48.40;102057.47;675360;29;1678;-69
2022/03/06 00:11:21;;;;;;;1.20;1.20;;;;;;;3.48;48.54;102055.69;674353;29;22400;-69
2022/03/06 00:11:42;;;;;;;1.10;1.10;;;;;;;3.49;48.64;102048.53;674358;29;46187;-70
2022/03/06 00:12:04;;;;;;;1.00;1.00;;;;;;;3.47;48.63;102059.31;675034;29;22361;-70
2022/03/06 00:12:26;;;;;;;0.95;0.95;;;;;;;3.47;48.71;102056.63;673399;29;46194;-69
2022/03/06 00:12:48;;;;;;;0.90;0.90;;;;;;;3.47;48.74;102059.31;673861;29;46339;-69
2022/03/06 00:13:09;;;;;;;0.80;0.80;;;;;;;3.49;48.71;102059.22;674098;29;47724;-69
2022/03/06 00:13:30;;;;;;;0.90;0.90;;;;;;;3.50;48.77;102059.13;675073;29;22475;-69
2022/03/06 00:13:52;;;;;;;1.20;1.20;;;;;;;3.51;48.79;102058.16;674612;29;22365;-70
2022/03/06 00:14:13;;;;;;;1.10;1.10;;;;;;;3.52;48.68;102056.34;674001;29;46326;-70
2022/03/06 00:14:34;;;;;;;1.00;1.00;;;;;;;3.53;48.71;102056.25;674675;29;22453;-70
2022/03/06 00:14:55;;;;;;;0.93;0.93;;;;;;;3.55;48.68;102057.00;674576;29;21230;-69
2022/03/06 00:15:17;;;;;;;1.00;1.00;;;;;;;3.57;48.61;102055.09;675060;29;22392;-70
2022/03/06 00:15:39;;;;;;;0.90;0.90;;;;;;;3.60;48.70;102062.91;673881;29;44383;-69
2022/03/06 00:16:00;;;;;;;1.10;1.10;;;;;;;3.62;48.59;102062.81;675049;29;23556;-69
2022/03/06 00:16:21;;;;;;;1.20;1.20;;;;;;;3.64;48.60;102052.88;673343;29;46336;-70
2022/03/06 00:16:42;;;;;;;1.10;1.10;;;;;;;3.65;48.50;102057.25;674907;29;21525;-70
2022/03/06 00:17:05;;;;;;;1.10;1.10;;;;;;;3.67;48.48;102054.47;674778;29;21308;-70
2022/03/06 00:17:26;;;;;;;1.00;1.00;;;;;;;3.69;48.49;102057.94;673234;29;69224;-70
2022/03/06 00:17:48;;;;;;;0.85;0.85;;;;;;;3.71;48.52;102050.66;675028;29;23722;-70
2022/03/06 00:18:09;;;;;;;0.90;0.90;;;;;;;3.73;48.39;102056.75;675078;29;22370;-70
2022/03/06 00:18:30;;;;;;;1.00;1.00;;;;;;;3.74;48.40;102053.97;675101;29;22459;-69
2022/03/06 00:18:52;;;;;;;1.10;1.10;;;;;;;3.73;48.31;102052.28;674442;29;44531;-69
2022/03/06 00:19:14;;;;;;;1.10;1.10;;;;;;;3.76;48.24;102048.53;673562;29;70350;-68
2022/03/06 00:19:36;;;;;;;1.00;1.00;;;;;;;3.77;48.21;102050.25;673896;29;46777;-69
2022/03/06 00:19:57;;;;;;;1.20;1.20;;;;;;;3.76;48.15;102049.41;674043;29;46332;-68
2022/03/06 00:20:19;;;;;;;0.98;0.98;;;;;;;3.75;48.14;102050.38;674791;29;21555;-69
2022/03/06 00:20:41;;;;;;;0.95;0.95;;;;;;;3.77;48.09;102050.25;673891;29;46340;-69
2022/03/06 00:21:03;;;;;;;0.90;0.90;;;;;;;3.77;48.18;102055.59;673978;29;45279;-69
2022/03/06 00:21:25;;;;;;;1.00;1.00;;;;;;;3.75;48.11;102053.03;673553;29;44367;-69
2022/03/06 00:21:46;;;;;;;1.10;1.10;;;;;;;3.76;48.09;102052.09;674054;29;46288;-69
2022/03/06 00:22:07;;;;;;;1.00;1.00;;;;;;;3.78;47.98;102060.00;674737;29;21201;-69
2022/03/06 00:22:29;;;;;;;1.10;1.10;;;;;;;3.73;47.96;102044.28;674698;29;21538;-74
2022/03/06 00:22:51;;;;;;;0.90;0.90;;;;;;;3.75;47.81;102050.38;673201;29;44579;-69
2022/03/06 00:23:12;;;;;;;0.90;0.90;;;;;;;3.75;47.84;102049.50;674225;29;46393;-70
2022/03/06 00:23:33;;;;;;;0.90;0.90;;;;;;;3.75;48.04;102049.50;675103;29;21248;-69
2022/03/06 00:23:55;;;;;;;1.00;1.00;;;;;;;3.75;48.08;102049.50;674872;29;23471;-69
2022/03/06 00:24:16;;;;;;;0.90;0.90;;;;;;;3.74;47.97;102045.97;675043;29;15786;-68
2022/03/06 00:24:37;;;;;;;0.98;0.98;;;;;;;3.75;47.99;102050.38;674456;29;23260;-70
2022/03/06 00:24:59;;;;;;;1.00;1.00;;;;;;;3.74;47.75;102053.97;674505;29;22417;-70
2022/03/06 00:25:21;;;;;;;0.80;0.80;;;;;;;3.74;47.79;102045.97;673838;29;45483;-69
2022/03/06 00:25:42;;;;;;;0.80;0.80;;;;;;;3.69;47.69;102045.41;674168;29;46409;-70
2022/03/06 00:26:03;;;;;;;0.90;0.90;;;;;;;3.71;47.94;102050.66;675096;29;21475;-69
2022/03/06 00:26:24;;;;;;;0.95;0.95;;;;;;;3.70;47.82;102049.81;674529;29;22412;-69
2022/03/06 00:26:45;;;;;;;0.88;0.88;;;;;;;3.70;47.74;102048.94;675036;29;22417;-69
2022/03/06 00:27:08;;;;;;;0.80;0.80;;;;;;;3.69;47.85;102045.41;671668;29;23444;-70
2022/03/06 00:27:29;;;;;;;0.80;0.80;;;;;;;3.68;47.81;102049.03;670949;29;45280;-69
2022/03/06 00:27:50;;;;;;;0.70;0.70;;;;;;;3.68;47.84;102048.19;671813;29;23405;-69
2022/03/06 00:28:12;;;;;;;0.70;0.70;;;;;;;3.69;47.99;102055.25;669221;29;22252;-70
2022/03/06 00:28:34;;;;;;;0.80;0.80;;;;;;;3.68;47.95;102053.53;664778;29;93317;-70
2022/03/06 00:28:56;;;;;;;0.90;0.90;;;;;;;3.69;48.02;102049.91;667408;29;21400;-70
2022/03/06 00:29:17;;;;;;;1.00;1.00;;;;;;;3.68;48.16;102046.38;672235;29;22502;-70
2022/03/06 00:29:39;;;;;;;1.00;1.00;;;;;;;3.70;48.10;102054.28;670609;29;46348;-69
2022/03/06 00:30:01;;;;;;;0.90;0.90;;;;;;;3.69;47.98;102050.75;669343;29;44898;-69
2022/03/06 00:30:22;;;;;;;0.77;0.77;;;;;;;3.70;47.93;102051.59;672247;29;23438;-70
2022/03/06 00:30:45;;;;;;;0.70;0.70;;;;;;;3.69;47.98;102052.59;672182;29;22402;-68
2022/03/06 00:31:06;;;;;;;1.00;1.00;;;;;;;3.67;47.85;102050.00;670341;29;70351;-69
2022/03/06 00:31:27;;;;;;;0.98;0.98;;;;;;;3.66;47.79;102047.44;670904;29;46293;-69
2022/03/06 00:31:48;;;;;;;0.90;0.90;;;;;;;3.65;47.91;102056.41;672663;29;21549;-69
2022/03/06 00:32:10;;;;;;;0.90;0.90;;;;;;;3.63;48.06;102051.16;674218;29;22345;-69
2022/03/06 00:32:32;;;;;;;0.77;0.77;;;;;;;3.63;48.05;102051.16;675173;29;22356;-69
2022/03/06 00:32:54;;;;;;;0.80;0.80;;;;;;;3.62;48.08;102049.47;673264;29;67338;-69
2022/03/06 00:33:15;;;;;;;0.90;0.90;;;;;;;3.61;48.10;102048.59;674289;29;44327;-70
2022/03/06 00:33:36;;;;;;;1.00;1.00;;;;;;;3.61;48.29;102047.75;675102;29;22397;-68
2022/03/06 00:33:58;;;;;;;1.00;1.00;;;;;;;3.62;48.32;102046.78;672102;29;21513;-69
2022/03/06 00:34:19;;;;;;;1.10;1.10;;;;;;;3.62;48.37;102046.78;671026;29;45112;-70
2022/03/06 00:34:42;;;;;;;0.90;0.90;;;;;;;3.64;48.29;102049.34;672213;29;22401;-69
2022/03/06 00:35:04;;;;;;;0.90;0.90;;;;;;;3.61;48.26;102048.59;670584;29;67485;-70
2022/03/06 00:35:28;;;;;;;0.70;0.70;;;;;;;3.66;48.31;102050.13;670073;29;69872;-70
2022/03/06 00:35:50;;;;;;;1.10;1.10;;;;;;;3.67;48.30;102050.00;671247;29;69277;-70
2022/03/06 00:36:11;;;;;;;1.20;1.20;;;;;;;3.67;48.13;102047.34;674045;29;46700;-69
2022/03/06 00:36:32;;;;;;;1.00;1.00;;;;;;;3.70;48.19;102054.28;674272;29;21565;-69
2022/03/06 00:36:53;;;;;;;1.00;1.00;;;;;;;3.70;48.13;102055.16;674803;29;23466;-70
2022/03/06 00:37:15;;;;;;;0.90;0.90;;;;;;;3.73;48.06;102051.41;675086;29;22372;-68
2022/03/06 00:37:38;;;;;;;0.88;0.88;;;;;;;3.73;47.92;102054.97;674097;29;46420;-69
2022/03/06 00:37:59;;;;;;;0.80;0.80;;;;;;;3.75;47.88;102044.16;672936;29;67516;-69
2022/03/06 00:38:20;;;;;;;1.00;1.00;;;;;;;3.75;47.88;102047.69;674970;29;24450;-69
2022/03/06 00:38:41;;;;;;;1.00;1.00;;;;;;;3.78;47.83;102052.00;675293;29;22416;-69
2022/03/06 00:39:04;;;;;;;0.90;0.90;;;;;;;3.76;47.79;102044.06;670329;29;21525;-69
2022/03/06 00:39:25;;;;;;;0.90;0.90;;;;;;;3.80;47.64;102047.38;668419;29;70330;-69
2022/03/06 00:39:46;;;;;;;1.00;1.00;;;;;;;3.81;47.63;102050.91;668763;29;22258;-69
2022/03/06 00:40:10;;;;;;;0.93;0.93;;;;;;;3.82;47.57;102055.31;669914;29;23505;-69
2022/03/06 00:40:31;;;;;;;0.82;0.82;;;;;;;3.82;47.28;102053.47;668304;29;69461;-69
2022/03/06 00:40:52;;;;;;;0.90;0.90;;;;;;;3.83;47.35;102049.00;671333;29;22387;-70
2022/03/06 00:41:15;;;;;;;1.10;1.10;;;;;;;3.83;47.28;102046.34;675050;29;23551;-70
2022/03/06 00:41:36;;;;;;;1.10;1.10;;;;;;;3.83;47.32;102047.19;671882;29;92327;-69
2022/03/06 00:41:57;;;;;;;0.98;0.98;;;;;;;3.84;47.33;102050.72;674879;29;22274;-69
2022/03/06 00:42:19;;;;;;;1.00;1.00;;;;;;;3.84;47.27;102050.72;673852;29;21491;-69
2022/03/06 00:42:41;;;;;;;0.80;0.80;;;;;;;3.83;47.11;102043.66;668764;29;45283;-69
2022/03/06 00:43:02;;;;;;;0.82;0.82;;;;;;;3.83;47.08;102041.00;669126;29;46306;-70
2022/03/06 00:43:23;;;;;;;0.90;0.90;;;;;;;3.84;47.17;102042.69;670075;29;21539;-69
2022/03/06 00:43:45;;;;;;;1.00;1.00;;;;;;;3.84;47.09;102046.25;669714;29;23680;-69
2022/03/06 00:44:06;;;;;;;1.00;1.00;;;;;;;3.81;46.98;102041.09;669215;29;43935;-70
2022/03/06 00:44:27;;;;;;;0.90;0.90;;;;;;;3.83;47.14;102049.88;670177;29;22381;-69
2022/03/06 00:44:48;;;;;;;0.88;0.88;;;;;;;3.83;47.21;102049.00;675542;29;11388;-69
2022/03/06 00:45:11;;;;;;;0.90;0.90;;;;;;;3.84;47.28;102048.03;674974;29;22397;-70
2022/03/06 00:45:33;;;;;;;0.80;0.80;;;;;;;3.84;47.33;102048.03;673283;29;67504;-70
2022/03/06 00:45:54;;;;;;;1.00;1.00;;;;;;;3.84;47.46;102046.25;674499;29;22200;-70
2022/03/06 00:46:15;;;;;;;1.00;1.00;;;;;;;3.81;47.30;102041.09;674853;29;23494;-69
2022/03/06 00:46:37;;;;;;;0.90;0.90;;;;;;;3.83;47.44;102051.69;674411;29;22486;-69
2022/03/06 00:46:58;;;;;;;0.90;0.90;;;;;;;3.83;47.44;102041.84;674162;29;46172;-70
2022/03/06 00:47:19;;;;;;;0.80;0.80;;;;;;;3.85;47.43;102044.41;675118;29;22423;-70
2022/03/06 00:47:41;;;;;;;0.90;0.90;;;;;;;3.85;47.41;102045.25;674413;29;45280;-69
2022/03/06 00:48:02;;;;;;;0.85;0.85;;;;;;;3.86;47.39;102047.00;673871;29;44175;-70
2022/03/06 00:48:23;;;;;;;1.00;1.00;;;;;;;3.86;47.61;102046.13;674847;29;22374;-70
2022/03/06 00:48:45;;;;;;;0.98;0.98;;;;;;;3.88;47.56;102045.06;674800;29;20677;-69
2022/03/06 00:49:07;;;;;;;1.00;1.00;;;;;;;3.88;47.41;102047.72;673759;29;44081;-69
2022/03/06 00:49:28;;;;;;;0.90;0.90;;;;;;;3.90;47.43;102048.50;673862;29;46343;-67
2022/03/06 00:49:51;;;;;;;1.00;1.00;;;;;;;3.90;47.52;102051.19;674334;29;24240;-69
2022/03/06 00:50:13;;;;;;;0.90;0.90;;;;;;;3.90;47.40;102045.84;672934;29;69407;-69
2022/03/06 00:50:35;;;;;;;0.80;0.80;;;;;;;3.92;47.43;102053.75;673841;29;46347;-70
2022/03/06 00:50:56;;;;;;;1.00;1.00;;;;;;;3.91;47.41;102047.53;674622;29;23445;-69
2022/03/06 00:51:18;;;;;;;1.00;1.00;;;;;;;3.91;47.30;102046.69;674103;29;46404;-70
2022/03/06 00:51:39;;;;;;;1.00;1.00;;;;;;;3.90;47.22;102045.84;672703;29;66546;-70
2022/03/06 00:52:00;;;;;;;0.90;0.90;;;;;;;3.90;47.09;102047.63;674430;29;21527;-70
2022/03/06 00:52:23;;;;;;;0.88;0.88;;;;;;;3.86;47.00;102048.81;674019;29;44107;-68
2022/03/06 00:52:45;;;;;;;0.80;0.80;;;;;;;3.83;47.06;102044.50;672386;29;22398;-69
2022/03/06 00:53:06;;;;;;;0.90;0.90;;;;;;;3.77;47.22;102043.09;671205;29;44404;-69
2022/03/06 00:53:27;;;;;;;0.90;0.90;;;;;;;3.76;47.22;102040.53;672107;29;23476;-69
2022/03/06 00:53:48;;;;;;;0.90;0.90;;;;;;;3.75;47.33;102045.03;672310;29;22418;-69
2022/03/06 00:54:10;;;;;;;0.90;0.90;;;;;;;3.70;47.35;102044.47;671347;29;46325;-69
2022/03/06 00:54:31;;;;;;;0.80;0.80;;;;;;;3.66;47.60;102042.09;671935;29;44396;-69
2022/03/06 00:54:52;;;;;;;0.80;0.80;;;;;;;3.64;47.61;102044.88;674682;29;23424;-69
2022/03/06 00:55:14;;;;;;;0.80;0.80;;;;;;;3.62;47.69;102046.78;671905;29;23489;-69
2022/03/06 00:55:35;;;;;;;0.90;0.90;;;;;;;3.61;47.87;102047.75;671229;29;46312;-69
2022/03/06 00:55:57;;;;;;;1.00;1.00;;;;;;;3.52;47.95;102033.16;669868;29;21999;-70
2022/03/06 00:56:18;;;;;;;1.00;1.00;;;;;;;3.57;48.03;102046.22;669633;29;21545;-70
2022/03/06 00:56:39;;;;;;;1.00;1.00;;;;;;;3.55;48.16;102045.47;668179;29;43590;-69
2022/03/06 00:57:01;;;;;;;0.98;0.98;;;;;;;3.53;48.15;102045.56;669727;29;21513;-69
2022/03/06 00:57:22;;;;;;;1.00;1.00;;;;;;;3.53;48.21;102044.72;671376;29;46383;-69
2022/03/06 00:57:43;;;;;;;0.80;0.80;;;;;;;3.54;48.28;102041.94;672576;29;22381;-69
2022/03/06 00:58:05;;;;;;;0.80;0.80;;;;;;;3.54;48.13;102049.09;674707;29;22410;-69
2022/03/06 00:58:30;;;;;;;1.15;1.15;;;;;;;3.57;48.21;102051.56;672039;29;38730;-69
2022/03/06 00:58:51;;;;;;;1.00;1.00;;;;;;;3.58;48.19;102047.94;671675;29;45276;-69
2022/03/06 00:59:12;;;;;;;1.00;1.00;;;;;;;3.61;48.26;102048.59;672108;29;23455;-70
2022/03/06 00:59:34;;;;;;;0.98;0.98;;;;;;;3.60;48.07;102043.34;671854;29;22559;-69
2022/03/06 00:59:55;;;;;;;0.90;0.90;;;;;;;3.60;47.97;102049.56;670612;29;69413;-69
2022/03/06 01:00:17;;;;;;;0.80;0.80;;;;;;;3.61;47.79;102037.06;672661;29;21529;-70
2022/03/06 01:00:40;;;;;;;1.00;1.00;;;;;;;3.60;47.66;102040.66;671546;29;45263;-69
2022/03/06 01:01:01;;;;;;;1.10;1.10;;;;;;;3.60;47.68;102044.22;671319;29;46288;-69
2022/03/06 01:01:22;;;;;;;1.00;1.00;;;;;;;3.58;47.57;102046.13;671668;29;21517;-69
2022/03/06 01:01:44;;;;;;;0.98;0.98;;;;;;;3.56;47.60;102047.19;672860;29;1078;-69
2022/03/06 01:02:06;;;;;;;1.05;1.05;;;;;;;3.56;47.79;102047.19;671760;29;46366;-69
2022/03/06 01:02:27;;;;;;;1.00;1.00;;;;;;;3.54;47.81;102043.75;672463;29;46169;-70
2022/03/06 01:02:49;;;;;;;0.90;0.90;;;;;;;3.51;47.66;102042.13;674962;29;23557;-70
2022/03/06 01:03:12;;;;;;;0.93;0.93;;;;;;;3.50;47.70;102047.59;673130;29;67556;-69
2022/03/06 01:03:34;;;;;;;1.05;1.05;;;;;;;3.47;47.71;102043.28;673461;29;67564;-69
2022/03/06 01:03:55;;;;;;;1.02;1.02;;;;;;;3.44;47.71;102046.16;671480;29;22277;-69
2022/03/06 01:04:16;;;;;;;0.90;0.90;;;;;;;3.43;47.70;102047.09;672202;29;23383;-69
2022/03/06 01:04:39;;;;;;;0.90;0.90;;;;;;;3.41;47.85;102044.53;672183;29;22350;-69
2022/03/06 01:05:02;;;;;;;1.20;1.20;;;;;;;3.37;47.94;102039.47;670297;29;69291;-69
2022/03/06 01:05:23;;;;;;;1.00;1.00;;;;;;;3.40;47.85;102044.63;669039;29;44100;-70
2022/03/06 01:05:45;;;;;;;1.00;1.00;;;;;;;3.40;48.21;102050.84;670460;29;23827;-70
2022/03/06 01:06:07;;;;;;;1.00;1.00;;;;;;;3.39;48.17;102042.94;672165;29;24447;-68
2022/03/06 01:06:28;;;;;;;1.20;1.20;;;;;;;3.41;48.33;102046.34;670671;29;44400;-69
2022/03/06 01:06:49;;;;;;;1.00;1.00;;;;;;;3.42;48.28;102050.75;672135;29;22250;-69
2022/03/06 01:07:10;;;;;;;0.93;0.93;;;;;;;3.44;48.37;102048.81;672565;29;21603;-69
2022/03/06 01:07:31;;;;;;;1.10;1.10;;;;;;;3.45;48.27;102049.66;674259;29;45243;-68
2022/03/06 01:07:53;;;;;;;1.23;1.23;;;;;;;3.46;48.21;102046.91;674788;29;23498;-69
2022/03/06 01:08:14;;;;;;;1.00;1.00;;;;;;;3.48;48.22;102052.16;673835;29;45204;-69
2022/03/06 01:08:35;;;;;;;0.90;0.90;;;;;;;3.48;48.23;102052.16;674666;29;22378;-69
2022/03/06 01:08:57;;;;;;;1.00;1.00;;;;;;;3.52;48.20;102049.19;674408;29;23372;-69
2022/03/06 01:09:19;;;;;;;1.00;1.00;;;;;;;3.54;48.19;102055.31;674695;29;23495;-70
2022/03/06 01:09:40;;;;;;;1.20;1.20;;;;;;;3.55;47.99;102053.47;673553;29;44366;-70
2022/03/06 01:10:01;;;;;;;1.30;1.30;;;;;;;3.58;47.98;102050.59;675323;29;1357;-69
2022/03/06 01:10:23;;;;;;;1.10;1.10;;;;;;;3.58;47.90;102043.44;674653;29;22472;-70
2022/03/06 01:10:46;;;;;;;1.13;1.13;;;;;;;3.62;47.90;102054.81;674047;29;46285;-69
2022/03/06 01:11:07;;;;;;;1.00;1.00;;;;;;;3.62;47.64;102049.47;673066;29;69180;-69
2022/03/06 01:11:28;;;;;;;1.08;1.08;;;;;;;3.61;47.41;102047.75;674245;29;23481;-70
2022/03/06 01:11:49;;;;;;;1.00;1.00;;;;;;;3.61;47.56;102055.75;674920;29;22392;-69
2022/03/06 01:12:11;;;;;;;0.93;0.93;;;;;;;3.61;47.82;102053.94;674480;29;23462;-70
2022/03/06 01:12:33;;;;;;;1.20;1.20;;;;;;;3.61;47.79;102048.59;673914;29;46661;-70
2022/03/06 01:12:54;;;;;;;1.10;1.10;;;;;;;3.61;47.60;102045.06;673606;29;46302;-69
2022/03/06 01:13:16;;;;;;;1.10;1.10;;;;;;;3.63;47.67;102053.81;674579;29;22325;-69
2022/03/06 01:13:37;;;;;;;0.90;0.90;;;;;;;3.66;47.60;102058.13;673423;29;68438;-69
2022/03/06 01:13:59;;;;;;;0.93;0.93;;;;;;;3.64;47.59;102052.88;674000;29;44398;-70
2022/03/06 01:14:20;;;;;;;1.00;1.00;;;;;;;3.64;47.38;102050.22;673752;29;46392;-70
2022/03/06 01:14:42;;;;;;;1.00;1.00;;;;;;;3.59;47.32;102053.19;674975;29;22409;-69
2022/03/06 01:15:04;;;;;;;1.10;1.10;;;;;;;3.59;47.23;102047.00;674493;29;23491;-69
2022/03/06 01:15:25;;;;;;;0.95;0.95;;;;;;;3.60;47.43;102057.56;674254;29;44411;-69
2022/03/06 01:15:47;;;;;;;1.00;1.00;;;;;;;3.58;47.32;102058.63;674889;29;22483;-69
2022/03/06 01:16:08;;;;;;;0.90;0.90;;;;;;;3.54;47.21;102049.97;674232;29;46415;-69
2022/03/06 01:16:30;;;;;;;0.80;0.80;;;;;;;3.52;47.17;102048.34;674175;29;21572;-70
2022/03/06 01:16:51;;;;;;;0.80;0.80;;;;;;;3.50;47.20;102047.59;673647;29;43673;-69
2022/03/06 01:17:12;;;;;;;0.80;0.80;;;;;;;3.48;47.42;102049.47;674729;29;22352;-69
2022/03/06 01:17:33;;;;;;;1.00;1.00;;;;;;;3.46;47.46;102054.91;673715;29;21541;-68
2022/03/06 01:17:55;;;;;;;1.00;1.00;;;;;;;3.43;47.44;102047.97;674007;29;22261;-69
2022/03/06 01:18:16;;;;;;;0.95;0.95;;;;;;;3.41;47.55;102047.19;673886;29;44428;-70
2022/03/06 01:18:38;;;;;;;0.80;0.80;;;;;;;3.40;47.57;102053.50;674812;29;22252;-70
2022/03/06 01:18:59;;;;;;;0.88;0.88;;;;;;;3.39;47.55;102051.78;674063;29;44408;-70
2022/03/06 01:19:21;;;;;;;0.90;0.90;;;;;;;3.38;47.61;102049.22;675006;29;22410;-69
2022/03/06 01:19:42;;;;;;;0.93;0.93;;;;;;;3.36;47.68;102051.13;673070;29;46341;-68
2022/03/06 01:20:06;;;;;;;1.10;1.10;;;;;;;3.36;47.76;102048.47;674390;29;23469;-69
2022/03/06 01:20:28;;;;;;;1.10;1.10;;;;;;;3.31;47.72;102031.84;672093;29;90344;-70
2022/03/06 01:20:49;;;;;;;1.10;1.10;;;;;;;3.35;47.90;102047.59;674065;29;46282;-69
2022/03/06 01:21:10;;;;;;;1.00;1.00;;;;;;;3.36;47.96;102045.78;674634;29;22394;-69
2022/03/06 01:21:32;;;;;;;0.90;0.90;;;;;;;3.36;47.98;102046.63;673166;29;46847;-69
2022/03/06 01:21:54;;;;;;;1.02;1.02;;;;;;;3.38;48.18;102049.22;674371;29;22243;-68
2022/03/06 01:22:15;;;;;;;0.90;0.90;;;;;;;3.40;48.19;102047.28;673956;29;45283;-70
2022/03/06 01:22:36;;;;;;;1.00;1.00;;;;;;;3.39;48.04;102041.09;674564;29;21907;-69
2022/03/06 01:22:57;;;;;;;1.20;1.20;;;;;;;3.43;48.17;102049.75;674389;29;22405;-69
2022/03/06 01:23:19;;;;;;;1.10;1.10;;;;;;;3.41;47.89;102047.19;674500;29;22359;-68
2022/03/06 01:23:40;;;;;;;1.00;1.00;;;;;;;3.44;47.88;102046.16;673617;29;46261;-68
2022/03/06 01:24:01;;;;;;;1.00;1.00;;;;;;;3.45;47.88;102042.53;673730;29;21583;-70
2022/03/06 01:24:22;;;;;;;0.90;0.90;;;;;;;3.48;47.84;102044.13;674765;29;22223;-69
2022/03/06 01:24:43;;;;;;;0.80;0.80;;;;;;;3.47;47.76;102045.09;674838;29;22395;-68
2022/03/06 01:25:06;;;;;;;1.10;1.10;;;;;;;3.50;47.93;102052.94;674897;29;21542;-69
2022/03/06 01:25:27;;;;;;;1.08;1.08;;;;;;;3.51;47.81;102050.16;673408;29;67192;-69
2022/03/06 01:25:48;;;;;;;1.00;1.00;;;;;;;3.53;47.80;102050.91;674496;29;23603;-69
2022/03/06 01:26:10;;;;;;;1.00;1.00;;;;;;;3.55;47.75;102048.97;675085;29;23526;-69
2022/03/06 01:26:32;;;;;;;0.90;0.90;;;;;;;3.57;47.71;102040.88;672488;29;46341;-70
2022/03/06 01:26:53;;;;;;;0.90;0.90;;;;;;;3.58;47.71;102046.13;673954;29;45056;-70
2022/03/06 01:27:14;;;;;;;0.90;0.90;;;;;;;3.59;47.75;102042.50;674767;29;21564;-69
2022/03/06 01:27:35;;;;;;;0.85;0.85;;;;;;;3.61;47.59;102047.75;674938;29;22282;-69
2022/03/06 01:27:57;;;;;;;1.05;1.05;;;;;;;3.59;47.61;102038.97;674949;29;22231;-68
2022/03/06 01:28:18;;;;;;;1.10;1.10;;;;;;;3.64;47.60;102044.00;673878;29;45088;-70
2022/03/06 01:28:39;;;;;;;1.10;1.10;;;;;;;3.64;47.47;102039.53;674681;29;22413;-69
2022/03/06 01:29:00;;;;;;;1.00;1.00;;;;;;;3.66;47.54;102052.78;674873;29;23555;-69
2022/03/06 01:29:23;;;;;;;0.95;0.95;;;;;;;3.67;47.49;102049.13;675345;29;1574;-69
2022/03/06 01:29:44;;;;;;;1.00;1.00;;;;;;;3.69;47.43;102049.91;672769;29;69475;-69
2022/03/06 01:30:08;;;;;;;1.10;1.10;;;;;;;3.70;47.52;102040.91;674953;29;23595;-69
2022/03/06 01:30:29;;;;;;;1.35;1.35;;;;;;;3.71;47.51;102045.31;672502;29;92011;-69
2022/03/06 01:30:51;;;;;;;1.20;1.20;;;;;;;3.73;47.51;102046.94;674868;29;22357;-70
2022/03/06 01:31:12;;;;;;;1.00;1.00;;;;;;;3.73;47.50;102048.75;674014;29;45391;-69
2022/03/06 01:31:33;;;;;;;0.98;0.98;;;;;;;3.73;47.40;102048.75;674003;29;21527;-69
2022/03/06 01:31:55;;;;;;;0.90;0.90;;;;;;;3.73;47.40;102046.94;674377;29;22424;-69
2022/03/06 01:32:16;;;;;;;0.90;0.90;;;;;;;3.74;47.39;102043.28;673910;29;45280;-68
2022/03/06 01:32:38;;;;;;;0.95;0.95;;;;;;;3.75;47.32;102042.34;674999;29;22407;-69
2022/03/06 01:33:00;;;;;;;1.10;1.10;;;;;;;3.75;47.29;102045.03;674059;29;44415;-69
2022/03/06 01:33:22;;;;;;;1.00;1.00;;;;;;;3.75;47.30;102046.84;673723;29;46431;-69
2022/03/06 01:33:43;;;;;;;1.00;1.00;;;;;;;3.77;47.19;102044.91;674332;29;44560;-69
2022/03/06 01:34:04;;;;;;;1.00;1.00;;;;;;;3.75;47.03;102042.34;674821;29;21329;-69
2022/03/06 01:34:25;;;;;;;1.00;1.00;;;;;;;3.75;47.09;102039.69;672320;29;21524;-69
2022/03/06 01:34:47;;;;;;;0.95;0.95;;;;;;;3.74;47.05;102032.59;672237;29;23730;-68
2022/03/06 01:35:10;;;;;;;1.00;1.00;;;;;;;3.75;47.02;102033.47;671261;29;44408;-69
2022/03/06 01:35:31;;;;;;;1.10;1.10;;;;;;;3.75;47.11;102037.00;669945;29;69448;-68
2022/03/06 01:35:52;;;;;;;1.10;1.10;;;;;;;3.75;47.18;102046.84;672274;29;22441;-69
2022/03/06 01:36:14;;;;;;;1.05;1.05;;;;;;;3.74;47.09;102048.63;672753;29;23604;-69
2022/03/06 01:36:35;;;;;;;1.00;1.00;;;;;;;3.71;46.87;102037.31;673557;29;45242;-70
2022/03/06 01:36:56;;;;;;;1.00;1.00;;;;;;;3.70;46.95;102047.16;671855;29;21122;-69
2022/03/06 01:37:17;;;;;;;0.90;0.90;;;;;;;3.70;46.86;102046.25;672370;29;23469;-69
2022/03/06 01:37:40;;;;;;;0.95;0.95;;;;;;;3.66;46.95;102045.63;672011;29;21358;-69
2022/03/06 01:38:01;;;;;;;1.00;1.00;;;;;;;3.65;46.99;102041.22;670665;29;69409;-69
2022/03/06 01:38:22;;;;;;;1.02;1.02;;;;;;;3.63;47.26;102043.13;672030;29;22316;-69
2022/03/06 01:38:44;;;;;;;1.00;1.00;;;;;;;3.62;47.33;102044.13;672727;29;22389;-69
2022/03/06 01:39:06;;;;;;;1.00;1.00;;;;;;;3.61;47.46;102048.59;674836;29;23482;-67
2022/03/06 01:39:27;;;;;;;0.93;0.93;;;;;;;3.62;47.48;102046.78;674179;29;44480;-69
2022/03/06 01:39:48;;;;;;;1.10;1.10;;;;;;;3.61;47.59;102048.59;673373;29;22465;-68
2022/03/06 01:40:10;;;;;;;1.00;1.00;;;;;;;3.63;47.58;102047.63;674950;29;24223;-69
2022/03/06 01:40:32;;;;;;;1.05;1.05;;;;;;;3.64;47.76;102049.34;673003;29;69604;-69
2022/03/06 01:40:53;;;;;;;1.10;1.10;;;;;;;3.66;47.58;102044.78;674136;29;44233;-69
2022/03/06 01:41:14;;;;;;;1.00;1.00;;;;;;;3.65;47.62;102041.22;674607;29;22420;-68
2022/03/06 01:41:36;;;;;;;0.88;0.88;;;;;;;3.67;47.60;102049.13;673998;29;22397;-69
2022/03/06 01:41:58;;;;;;;0.85;0.85;;;;;;;3.67;47.65;102047.34;673709;29;45126;-69
2022/03/06 01:42:19;;;;;;;0.90;0.90;;;;;;;3.67;47.66;102046.47;674112;29;46472;-69
2022/03/06 01:42:42;;;;;;;0.80;0.80;;;;;;;3.70;47.68;102040.91;674917;29;23446;-70